»·PEaware :: N324PT KAVX-KSAN

N324PT :: KAVX-KSAN

FLIGHT INFORMATION

Flight Status: Arrived
Operator: Privately registered:
United States
More flights under this callsign
Pilot: Pedro T. (27113)
Aircraft: CESSNA 172 SKYHAWK
(C172)
More flights by this aircraft type
Origin: KAVX Catalina
United States
Destination: KSAN San Diego Intl-Lindbergh
United States
More flights between these airports :: More routes between these airports
Route: +SXC V208 OCN V23 MZB
File this flight plan on PilotEdge
Remarks: I-8 Rating
Altitude:
(Current/Filed)
5,000ft
Speed:
(Current/Filed)
100kts
Departed: 29-Jan-20 09:28 PM
Arrived: 29-Jan-20 10:48 PM
Distance/Time
Traveled:
74nm/1:20
Distance/Time
To Go:
Arrived

Flight Plot

Page will automatically refresh every two minutes.


Map Options




Map Legend


Flown Route
Filed Route
Departure Airport
Arrival Airport
Navaid (VOR, NDB)
Fix

Horizontal Profiles

Position Reports

Time Latitude Longitude Heading Altitude Ground
Speed
29-Jan-20 21:22 33.403870 -118.415292 235 1546ft 0kts
29-Jan-20 21:23 33.403870 -118.415292 235 1546ft 0kts
29-Jan-20 21:24 33.403870 -118.415292 235 1546ft 0kts
29-Jan-20 21:25 33.403870 -118.415292 235 1546ft 0kts
29-Jan-20 21:26 33.405693 -118.413918 54 1529ft 19kts
29-Jan-20 21:27 33.406744 -118.412845 233 1514ft 44kts
29-Jan-20 21:29 33.393258 -118.437788 240 2165ft 102kts
29-Jan-20 21:30 33.371056 -118.455698 147 2667ft 121kts
29-Jan-20 21:31 33.350566 -118.426002 128 3137ft 124kts
29-Jan-20 21:32 33.331159 -118.396400 128 3586ft 125kts
29-Jan-20 21:33 33.344416 -118.376549 357 2804ft 86kts
29-Jan-20 21:34 33.367344 -118.377866 348 2259ft 100kts
29-Jan-20 21:35 33.395930 -118.389768 329 2093ft 121kts
29-Jan-20 21:36 33.408084 -118.409666 263 1615ft 65kts
29-Jan-20 21:37 33.405793 -118.413761 48 1527ft 19kts
29-Jan-20 21:38 33.407113 -118.411514 50 1500ft 0kts
29-Jan-20 21:39 33.407113 -118.411514 50 1500ft 0kts
29-Jan-20 21:40 33.407113 -118.411514 50 1500ft 0kts
29-Jan-20 21:41 33.407113 -118.411514 50 1500ft 0kts
29-Jan-20 21:42 33.407113 -118.411514 50 1500ft 0kts
29-Jan-20 21:43 33.407107 -118.412198 237 1507ft 9kts
29-Jan-20 21:44 33.397372 -118.431630 244 2146ft 84kts
29-Jan-20 21:45 33.384930 -118.456794 244 2940ft 99kts
29-Jan-20 21:46 33.370838 -118.487509 245 3439ft 110kts
29-Jan-20 21:47 33.356025 -118.518749 245 3920ft 111kts
29-Jan-20 21:48 33.332007 -118.526255 119 4392ft 126kts
29-Jan-20 21:48 33.336313 -118.496639 52 4787ft 115kts
29-Jan-20 21:49 33.352502 -118.464250 53 5063ft 127kts
29-Jan-20 21:51 33.371237 -118.422690 77 5055ft 138kts
29-Jan-20 21:51 33.368878 -118.384982 92 5060ft 141kts
29-Jan-20 21:52 33.363541 -118.340204 94 5060ft 142kts
29-Jan-20 21:54 33.356819 -118.287949 93 5058ft 142kts
29-Jan-20 21:54 33.352039 -118.251286 93 5055ft 141kts
29-Jan-20 21:55 33.346408 -118.208282 92 5052ft 140kts
29-Jan-20 21:56 33.340863 -118.166038 91 5050ft 139kts
29-Jan-20 21:57 33.335145 -118.122662 91 5051ft 139kts
29-Jan-20 21:58 33.329887 -118.082792 90 5046ft 138kts
29-Jan-20 21:59 33.324089 -118.039040 90 5043ft 137kts
29-Jan-20 22:00 33.318241 -117.994975 91 5038ft 136kts
29-Jan-20 22:01 33.312550 -117.952248 91 5033ft 135kts
29-Jan-20 22:02 33.307098 -117.911433 91 5027ft 133kts
29-Jan-20 22:03 33.301422 -117.869019 91 5021ft 132kts
29-Jan-20 22:04 33.296107 -117.829391 91 5015ft 130kts
29-Jan-20 22:05 33.291211 -117.792888 95 5023ft 116kts
29-Jan-20 22:06 33.286369 -117.757074 95 5023ft 114kts
29-Jan-20 22:07 33.281246 -117.722120 96 5023ft 114kts
29-Jan-20 22:08 33.275886 -117.686333 96 5023ft 114kts
29-Jan-20 22:09 33.270662 -117.651569 96 5022ft 114kts
29-Jan-20 22:10 33.265663 -117.618378 96 5022ft 114kts
29-Jan-20 22:11 33.260510 -117.584272 95 5022ft 114kts
29-Jan-20 22:12 33.256217 -117.550378 93 5021ft 116kts
29-Jan-20 22:13 33.252020 -117.515463 92 5020ft 118kts
29-Jan-20 22:14 33.248245 -117.484267 91 5019ft 120kts
29-Jan-20 22:15 33.244110 -117.450227 91 5018ft 122kts
29-Jan-20 22:16 33.232337 -117.418565 144 5015ft 138kts
29-Jan-20 22:17 33.199594 -117.401844 154 5016ft 141kts
29-Jan-20 22:18 33.163328 -117.385597 155 5016ft 142kts
29-Jan-20 22:19 33.130644 -117.371725 156 5016ft 143kts
29-Jan-20 22:20 33.091833 -117.355398 157 5016ft 143kts
29-Jan-20 22:21 33.058705 -117.341477 157 5016ft 144kts
29-Jan-20 22:22 33.024056 -117.326925 158 5017ft 145kts
29-Jan-20 22:23 32.989838 -117.312561 158 5018ft 146kts
29-Jan-20 22:24 32.954099 -117.297574 158 5019ft 146kts
29-Jan-20 22:25 32.918747 -117.282771 157 5020ft 147kts
29-Jan-20 22:26 32.883653 -117.268076 157 5018ft 146kts
29-Jan-20 22:27 32.861292 -117.237818 100 5020ft 132kts
29-Jan-20 22:28 32.851158 -117.200287 100 5023ft 133kts
29-Jan-20 22:29 32.840222 -117.159160 100 5026ft 134kts
29-Jan-20 22:30 32.829584 -117.118277 100 5029ft 135kts
29-Jan-20 22:31 32.820176 -117.081653 100 5029ft 134kts
29-Jan-20 22:32 32.810534 -117.044253 100 5028ft 134kts
29-Jan-20 22:33 32.800394 -117.005288 100 5027ft 131kts
29-Jan-20 22:34 32.790658 -116.968196 100 5026ft 131kts
29-Jan-20 22:35 32.781002 -116.931476 100 5024ft 132kts
29-Jan-20 22:36 32.770854 -116.892702 100 5023ft 134kts
29-Jan-20 22:37 32.745590 -116.871614 180 4776ft 153kts
29-Jan-20 22:38 32.700632 -116.869297 180 4246ft 151kts
29-Jan-20 22:39 32.676690 -116.896624 260 3851ft 123kts
29-Jan-20 22:40 32.670559 -116.936928 280 3780ft 118kts
29-Jan-20 22:41 32.680706 -116.981128 291 3799ft 113kts
29-Jan-20 22:42 32.691970 -117.019912 296 3198ft 116kts
29-Jan-20 22:43 32.701944 -117.061088 291 2298ft 98kts
29-Jan-20 22:44 32.714171 -117.110343 289 1551ft 118kts
29-Jan-20 22:45 32.722993 -117.145587 288 800ft 93kts
29-Jan-20 22:46 32.730251 -117.175897 286 135ft 78kts
29-Jan-20 22:47 32.734486 -117.193941 260 17ft 12kts
29-Jan-20 22:48 32.733187 -117.194268 175 17ft 7kts
29-Jan-20 22:49 32.731808 -117.193344 244 17ft 8kts
29-Jan-20 22:50 32.732095 -117.193584 25 17ft 0kts

Navigation Log

Ident Type
Flight plan parsing failed, navigation log unavailable